sensor_id;sensor_type;location;lat;lon;timestamp;temperature;humidity
29207;DHT22;16247;50.840;4.382;2023-06-22T00:02:51;23.30;99.90
29207;DHT22;16247;50.840;4.382;2023-06-22T00:19:17;23.20;99.90
29207;DHT22;16247;50.840;4.382;2023-06-22T00:27:35;23.20;99.90
29207;DHT22;16247;50.840;4.382;2023-06-22T01:12:42;23.20;99.90
29207;DHT22;16247;50.840;4.382;2023-06-22T01:15:25;23.20;99.90
29207;DHT22;16247;50.840;4.382;2023-06-22T01:29:04;23.20;99.90
29207;DHT22;16247;50.840;4.382;2023-06-22T01:31:39;23.10;99.90
29207;DHT22;16247;50.840;4.382;2023-06-22T01:34:43;23.00;99.90
29207;DHT22;16247;50.840;4.382;2023-06-22T01:37:58;23.00;99.90
29207;DHT22;16247;50.840;4.382;2023-06-22T01:40:55;23.10;99.90
29207;DHT22;16247;50.840;4.382;2023-06-22T01:43:38;22.80;99.90
29207;DHT22;16247;50.840;4.382;2023-06-22T02:02:25;22.70;99.90
29207;DHT22;16247;50.840;4.382;2023-06-22T02:05:11;22.70;99.90
29207;DHT22;16247;50.840;4.382;2023-06-22T02:07:52;22.70;99.90
29207;DHT22;16247;50.840;4.382;2023-06-22T02:10:27;22.80;99.90
29207;DHT22;16247;50.840;4.382;2023-06-22T02:13:07;22.70;99.90
29207;DHT22;16247;50.840;4.382;2023-06-22T02:15:37;22.50;99.90
29207;DHT22;16247;50.840;4.382;2023-06-22T02:18:03;22.60;99.90
29207;DHT22;16247;50.840;4.382;2023-06-22T02:20:31;22.60;99.90
29207;DHT22;16247;50.840;4.382;2023-06-22T02:22:59;22.50;99.90
29207;DHT22;16247;50.840;4.382;2023-06-22T02:30:46;22.40;99.90
29207;DHT22;16247;50.840;4.382;2023-06-22T05:01:48;21.90;99.90
29207;DHT22;16247;50.840;4.382;2023-06-22T05:04:14;21.80;99.90
29207;DHT22;16247;50.840;4.382;2023-06-22T05:06:39;21.70;99.90
29207;DHT22;16247;50.840;4.382;2023-06-22T05:09:05;21.70;99.90
29207;DHT22;16247;50.840;4.382;2023-06-22T05:11:31;21.70;99.90
29207;DHT22;16247;50.840;4.382;2023-06-22T05:13:56;21.70;99.90
29207;DHT22;16247;50.840;4.382;2023-06-22T05:16:22;21.70;99.90
29207;DHT22;16247;50.840;4.382;2023-06-22T05:18:52;21.80;99.90
29207;DHT22;16247;50.840;4.382;2023-06-22T05:21:22;21.80;99.90
29207;DHT22;16247;50.840;4.382;2023-06-22T05:23:48;21.80;99.90
29207;DHT22;16247;50.840;4.382;2023-06-22T05:26:14;21.70;99.90
29207;DHT22;16247;50.840;4.382;2023-06-22T05:28:40;21.50;99.90
29207;DHT22;16247;50.840;4.382;2023-06-22T05:31:05;21.70;99.90
29207;DHT22;16247;50.840;4.382;2023-06-22T05:33:31;21.90;99.90
29207;DHT22;16247;50.840;4.382;2023-06-22T05:35:56;22.00;99.90
29207;DHT22;16247;50.840;4.382;2023-06-22T05:38:22;22.10;99.90
29207;DHT22;16247;50.840;4.382;2023-06-22T05:40:48;21.90;99.90
29207;DHT22;16247;50.840;4.382;2023-06-22T05:43:13;21.70;99.90
29207;DHT22;16247;50.840;4.382;2023-06-22T05:45:39;21.80;99.90
29207;DHT22;16247;50.840;4.382;2023-06-22T05:48:05;21.90;99.90
29207;DHT22;16247;50.840;4.382;2023-06-22T05:50:31;21.70;99.90
29207;DHT22;16247;50.840;4.382;2023-06-22T05:52:56;21.90;99.90
29207;DHT22;16247;50.840;4.382;2023-06-22T05:55:22;21.90;99.90
29207;DHT22;16247;50.840;4.382;2023-06-22T05:57:49;22.40;99.90
29207;DHT22;16247;50.840;4.382;2023-06-22T06:00:15;22.20;99.90
29207;DHT22;16247;50.840;4.382;2023-06-22T06:02:40;22.30;99.90
29207;DHT22;16247;50.840;4.382;2023-06-22T06:05:12;22.50;99.90
29207;DHT22;16247;50.840;4.382;2023-06-22T06:07:44;22.60;99.90
29207;DHT22;16247;50.840;4.382;2023-06-22T06:10:10;22.70;99.90
29207;DHT22;16247;50.840;4.382;2023-06-22T06:12:36;22.70;99.90
29207;DHT22;16247;50.840;4.382;2023-06-22T06:15:02;22.70;99.90
29207;DHT22;16247;50.840;4.382;2023-06-22T06:17:28;22.50;99.90
29207;DHT22;16247;50.840;4.382;2023-06-22T06:19:53;22.50;99.90
29207;DHT22;16247;50.840;4.382;2023-06-22T06:22:19;22.50;99.90
29207;DHT22;16247;50.840;4.382;2023-06-22T06:24:47;22.50;99.90
29207;DHT22;16247;50.840;4.382;2023-06-22T06:27:13;22.40;99.90
29207;DHT22;16247;50.840;4.382;2023-06-22T06:29:39;22.60;99.90
29207;DHT22;16247;50.840;4.382;2023-06-22T06:32:05;22.60;99.90
29207;DHT22;16247;50.840;4.382;2023-06-22T06:34:31;22.70;99.90
29207;DHT22;16247;50.840;4.382;2023-06-22T06:36:57;22.80;99.90
29207;DHT22;16247;50.840;4.382;2023-06-22T06:39:22;22.90;99.90
29207;DHT22;16247;50.840;4.382;2023-06-22T06:41:48;23.00;99.90
29207;DHT22;16247;50.840;4.382;2023-06-22T06:44:14;23.10;99.90
29207;DHT22;16247;50.840;4.382;2023-06-22T06:46:40;23.20;99.90
29207;DHT22;16247;50.840;4.382;2023-06-22T06:49:07;23.20;99.90
29207;DHT22;16247;50.840;4.382;2023-06-22T06:51:32;23.40;99.90
29207;DHT22;16247;50.840;4.382;2023-06-22T06:53:58;23.40;99.90
29207;DHT22;16247;50.840;4.382;2023-06-22T06:56:24;23.40;99.90
29207;DHT22;16247;50.840;4.382;2023-06-22T06:58:50;23.40;99.90
29207;DHT22;16247;50.840;4.382;2023-06-22T07:01:16;23.40;99.90
29207;DHT22;16247;50.840;4.382;2023-06-22T07:03:42;23.30;99.90
29207;DHT22;16247;50.840;4.382;2023-06-22T07:06:09;23.50;99.90
29207;DHT22;16247;50.840;4.382;2023-06-22T07:08:34;23.50;99.90
29207;DHT22;16247;50.840;4.382;2023-06-22T07:11:02;23.30;99.90
29207;DHT22;16247;50.840;4.382;2023-06-22T07:13:28;23.40;99.90
29207;DHT22;16247;50.840;4.382;2023-06-22T07:15:54;23.40;99.90
29207;DHT22;16247;50.840;4.382;2023-06-22T07:18:20;23.40;99.90
29207;DHT22;16247;50.840;4.382;2023-06-22T07:20:45;23.40;99.90
29207;DHT22;16247;50.840;4.382;2023-06-22T07:23:11;23.40;99.90
29207;DHT22;16247;50.840;4.382;2023-06-22T07:25:36;23.00;99.90
29207;DHT22;16247;50.840;4.382;2023-06-22T07:28:05;23.00;99.90
29207;DHT22;16247;50.840;4.382;2023-06-22T07:30:31;23.00;99.90
29207;DHT22;16247;50.840;4.382;2023-06-22T07:32:58;23.00;99.90
29207;DHT22;16247;50.840;4.382;2023-06-22T07:35:24;23.10;99.90
29207;DHT22;16247;50.840;4.382;2023-06-22T07:37:50;22.90;99.90
29207;DHT22;16247;50.840;4.382;2023-06-22T07:40:16;23.10;99.90
29207;DHT22;16247;50.840;4.382;2023-06-22T07:42:41;23.20;99.90
29207;DHT22;16247;50.840;4.382;2023-06-22T07:45:08;22.90;99.90
29207;DHT22;16247;50.840;4.382;2023-06-22T07:47:34;23.00;99.90
29207;DHT22;16247;50.840;4.382;2023-06-22T07:50:01;23.10;99.90
29207;DHT22;16247;50.840;4.382;2023-06-22T07:52:30;23.10;99.90
29207;DHT22;16247;50.840;4.382;2023-06-22T07:54:56;23.20;99.90
29207;DHT22;16247;50.840;4.382;2023-06-22T07:57:22;23.10;99.90
29207;DHT22;16247;50.840;4.382;2023-06-22T07:59:48;23.00;99.90
29207;DHT22;16247;50.840;4.382;2023-06-22T08:02:13;22.80;99.90
29207;DHT22;16247;50.840;4.382;2023-06-22T08:04:39;22.80;99.90
29207;DHT22;16247;50.840;4.382;2023-06-22T08:07:05;22.90;99.90
29207;DHT22;16247;50.840;4.382;2023-06-22T08:09:32;22.80;99.90
29207;DHT22;16247;50.840;4.382;2023-06-22T08:11:59;22.80;99.90
29207;DHT22;16247;50.840;4.382;2023-06-22T08:14:29;22.60;99.90
29207;DHT22;16247;50.840;4.382;2023-06-22T08:16:55;22.60;99.90
29207;DHT22;16247;50.840;4.382;2023-06-22T08:19:20;22.60;99.90
29207;DHT22;16247;50.840;4.382;2023-06-22T08:21:46;22.70;99.90
29207;DHT22;16247;50.840;4.382;2023-06-22T08:24:12;23.00;99.90
29207;DHT22;16247;50.840;4.382;2023-06-22T08:26:38;23.10;99.90
29207;DHT22;16247;50.840;4.382;2023-06-22T08:29:04;23.00;99.90
29207;DHT22;16247;50.840;4.382;2023-06-22T08:31:30;22.80;99.90
29207;DHT22;16247;50.840;4.382;2023-06-22T08:33:57;22.70;99.90
29207;DHT22;16247;50.840;4.382;2023-06-22T08:36:23;22.50;99.90
29207;DHT22;16247;50.840;4.382;2023-06-22T08:38:48;22.40;99.90
29207;DHT22;16247;50.840;4.382;2023-06-22T08:41:17;22.50;99.90
29207;DHT22;16247;50.840;4.382;2023-06-22T08:43:43;22.60;99.90
29207;DHT22;16247;50.840;4.382;2023-06-22T08:46:10;22.60;99.90
29207;DHT22;16247;50.840;4.382;2023-06-22T08:48:36;22.60;99.90
29207;DHT22;16247;50.840;4.382;2023-06-22T08:51:02;22.50;99.90
29207;DHT22;16247;50.840;4.382;2023-06-22T08:53:28;22.40;99.90
29207;DHT22;16247;50.840;4.382;2023-06-22T08:55:54;22.30;99.90
29207;DHT22;16247;50.840;4.382;2023-06-22T08:58:20;22.40;99.90
29207;DHT22;16247;50.840;4.382;2023-06-22T09:00:47;22.30;99.90
29207;DHT22;16247;50.840;4.382;2023-06-22T09:03:13;22.40;99.90
29207;DHT22;16247;50.840;4.382;2023-06-22T09:05:39;22.30;99.90
29207;DHT22;16247;50.840;4.382;2023-06-22T09:08:04;22.40;99.90
29207;DHT22;16247;50.840;4.382;2023-06-22T09:10:30;22.50;99.90
29207;DHT22;16247;50.840;4.382;2023-06-22T09:12:57;22.50;99.90
29207;DHT22;16247;50.840;4.382;2023-06-22T09:15:23;22.60;99.90
29207;DHT22;16247;50.840;4.382;2023-06-22T09:17:48;22.60;99.90
29207;DHT22;16247;50.840;4.382;2023-06-22T09:20:15;22.50;99.90
29207;DHT22;16247;50.840;4.382;2023-06-22T09:22:41;22.30;99.90
29207;DHT22;16247;50.840;4.382;2023-06-22T09:25:07;22.30;99.90
29207;DHT22;16247;50.840;4.382;2023-06-22T09:27:33;22.60;99.90
29207;DHT22;16247;50.840;4.382;2023-06-22T09:29:58;22.70;99.90
29207;DHT22;16247;50.840;4.382;2023-06-22T09:32:25;22.70;99.90
29207;DHT22;16247;50.840;4.382;2023-06-22T09:34:51;22.80;99.90
29207;DHT22;16247;50.840;4.382;2023-06-22T09:37:18;22.70;99.90
29207;DHT22;16247;50.840;4.382;2023-06-22T09:39:43;22.60;99.90
29207;DHT22;16247;50.840;4.382;2023-06-22T09:42:09;22.60;99.90
29207;DHT22;16247;50.840;4.382;2023-06-22T09:44:34;22.60;99.90
29207;DHT22;16247;50.840;4.382;2023-06-22T09:47:00;22.50;99.90
29207;DHT22;16247;50.840;4.382;2023-06-22T09:49:26;22.30;99.90
29207;DHT22;16247;50.840;4.382;2023-06-22T09:51:52;22.00;99.90
29207;DHT22;16247;50.840;4.382;2023-06-22T09:54:18;21.80;99.90
29207;DHT22;16247;50.840;4.382;2023-06-22T09:56:43;21.80;99.90
29207;DHT22;16247;50.840;4.382;2023-06-22T09:59:09;21.80;99.90
29207;DHT22;16247;50.840;4.382;2023-06-22T10:01:35;21.10;99.90
29207;DHT22;16247;50.840;4.382;2023-06-22T10:04:02;20.70;99.90
29207;DHT22;16247;50.840;4.382;2023-06-22T10:06:28;20.40;99.90
29207;DHT22;16247;50.840;4.382;2023-06-22T10:08:53;20.20;99.90
29207;DHT22;16247;50.840;4.382;2023-06-22T10:11:19;20.00;99.90
29207;DHT22;16247;50.840;4.382;2023-06-22T10:13:45;20.20;99.90
29207;DHT22;16247;50.840;4.382;2023-06-22T10:16:10;20.30;99.90
29207;DHT22;16247;50.840;4.382;2023-06-22T10:18:36;20.10;99.90
29207;DHT22;16247;50.840;4.382;2023-06-22T10:21:02;20.00;99.90
29207;DHT22;16247;50.840;4.382;2023-06-22T10:23:28;19.90;99.90
29207;DHT22;16247;50.840;4.382;2023-06-22T10:25:53;19.80;99.90
29207;DHT22;16247;50.840;4.382;2023-06-22T10:28:19;19.70;99.90
29207;DHT22;16247;50.840;4.382;2023-06-22T10:30:45;19.70;99.90
29207;DHT22;16247;50.840;4.382;2023-06-22T10:33:11;19.70;99.90
29207;DHT22;16247;50.840;4.382;2023-06-22T10:35:38;19.80;99.90
29207;DHT22;16247;50.840;4.382;2023-06-22T10:38:04;19.70;99.90
29207;DHT22;16247;50.840;4.382;2023-06-22T10:40:30;19.70;99.90
29207;DHT22;16247;50.840;4.382;2023-06-22T10:42:56;19.60;99.90
29207;DHT22;16247;50.840;4.382;2023-06-22T10:45:22;19.60;99.90
29207;DHT22;16247;50.840;4.382;2023-06-22T10:47:47;19.70;99.90
29207;DHT22;16247;50.840;4.382;2023-06-22T10:50:13;19.80;99.90
29207;DHT22;16247;50.840;4.382;2023-06-22T10:52:39;19.80;99.90
29207;DHT22;16247;50.840;4.382;2023-06-22T10:55:05;20.00;99.90
29207;DHT22;16247;50.840;4.382;2023-06-22T10:57:31;20.30;99.90
29207;DHT22;16247;50.840;4.382;2023-06-22T10:59:57;20.70;99.90
29207;DHT22;16247;50.840;4.382;2023-06-22T11:02:23;21.00;99.90
29207;DHT22;16247;50.840;4.382;2023-06-22T11:04:49;21.10;99.90
29207;DHT22;16247;50.840;4.382;2023-06-22T11:07:16;21.10;99.90
29207;DHT22;16247;50.840;4.382;2023-06-22T11:09:43;21.20;99.90
29207;DHT22;16247;50.840;4.382;2023-06-22T11:12:09;21.20;99.90
29207;DHT22;16247;50.840;4.382;2023-06-22T11:14:34;21.60;99.90
29207;DHT22;16247;50.840;4.382;2023-06-22T11:17:00;21.80;99.90
29207;DHT22;16247;50.840;4.382;2023-06-22T11:19:26;22.00;99.90
29207;DHT22;16247;50.840;4.382;2023-06-22T11:21:52;22.00;99.90
29207;DHT22;16247;50.840;4.382;2023-06-22T11:24:17;22.20;99.90
29207;DHT22;16247;50.840;4.382;2023-06-22T11:26:43;22.20;99.90
29207;DHT22;16247;50.840;4.382;2023-06-22T11:29:09;22.30;99.90
29207;DHT22;16247;50.840;4.382;2023-06-22T11:31:35;22.30;99.90
29207;DHT22;16247;50.840;4.382;2023-06-22T11:34:01;22.10;99.90
29207;DHT22;16247;50.840;4.382;2023-06-22T11:36:27;21.90;99.90
29207;DHT22;16247;50.840;4.382;2023-06-22T11:38:52;21.60;99.90
29207;DHT22;16247;50.840;4.382;2023-06-22T11:41:18;21.60;99.90
29207;DHT22;16247;50.840;4.382;2023-06-22T11:43:44;21.80;99.90
29207;DHT22;16247;50.840;4.382;2023-06-22T11:46:10;21.80;99.90
29207;DHT22;16247;50.840;4.382;2023-06-22T11:48:36;21.70;99.90
29207;DHT22;16247;50.840;4.382;2023-06-22T11:51:02;21.50;99.90
29207;DHT22;16247;50.840;4.382;2023-06-22T11:53:29;21.30;99.90
29207;DHT22;16247;50.840;4.382;2023-06-22T11:55:55;21.00;99.90
29207;DHT22;16247;50.840;4.382;2023-06-22T11:58:22;20.90;99.90
29207;DHT22;16247;50.840;4.382;2023-06-22T12:00:48;20.80;99.90
29207;DHT22;16247;50.840;4.382;2023-06-22T12:03:14;20.70;99.90
29207;DHT22;16247;50.840;4.382;2023-06-22T12:05:42;20.60;99.90
29207;DHT22;16247;50.840;4.382;2023-06-22T12:08:08;20.50;99.90
29207;DHT22;16247;50.840;4.382;2023-06-22T12:10:34;20.40;99.90
29207;DHT22;16247;50.840;4.382;2023-06-22T12:13:00;20.30;99.90
29207;DHT22;16247;50.840;4.382;2023-06-22T12:15:26;20.50;99.90
29207;DHT22;16247;50.840;4.382;2023-06-22T12:17:52;20.90;99.90
29207;DHT22;16247;50.840;4.382;2023-06-22T12:20:18;21.20;99.90
29207;DHT22;16247;50.840;4.382;2023-06-22T12:22:44;21.40;99.90
29207;DHT22;16247;50.840;4.382;2023-06-22T12:25:10;21.40;99.90
29207;DHT22;16247;50.840;4.382;2023-06-22T12:27:37;21.30;99.90
29207;DHT22;16247;50.840;4.382;2023-06-22T12:30:03;21.30;99.90
29207;DHT22;16247;50.840;4.382;2023-06-22T12:32:29;21.10;99.90
29207;DHT22;16247;50.840;4.382;2023-06-22T12:34:55;21.30;99.90
29207;DHT22;16247;50.840;4.382;2023-06-22T12:37:22;21.40;99.90
29207;DHT22;16247;50.840;4.382;2023-06-22T12:39:47;21.20;99.90
29207;DHT22;16247;50.840;4.382;2023-06-22T12:42:13;21.00;99.90
29207;DHT22;16247;50.840;4.382;2023-06-22T12:44:39;20.70;99.90
29207;DHT22;16247;50.840;4.382;2023-06-22T12:47:05;20.80;99.90
29207;DHT22;16247;50.840;4.382;2023-06-22T12:49:31;21.00;99.90
29207;DHT22;16247;50.840;4.382;2023-06-22T12:51:57;21.40;99.90
29207;DHT22;16247;50.840;4.382;2023-06-22T12:54:22;21.60;99.90
29207;DHT22;16247;50.840;4.382;2023-06-22T12:56:50;21.50;99.90
29207;DHT22;16247;50.840;4.382;2023-06-22T12:59:16;21.60;99.90
29207;DHT22;16247;50.840;4.382;2023-06-22T13:01:42;21.50;99.90
29207;DHT22;16247;50.840;4.382;2023-06-22T13:04:09;21.50;99.90
29207;DHT22;16247;50.840;4.382;2023-06-22T13:06:36;21.60;99.90
29207;DHT22;16247;50.840;4.382;2023-06-22T13:09:02;21.40;99.90
29207;DHT22;16247;50.840;4.382;2023-06-22T13:11:30;21.10;99.90
29207;DHT22;16247;50.840;4.382;2023-06-22T13:13:56;20.90;99.90
29207;DHT22;16247;50.840;4.382;2023-06-22T13:16:21;20.90;99.90
29207;DHT22;16247;50.840;4.382;2023-06-22T13:18:47;20.60;99.90
29207;DHT22;16247;50.840;4.382;2023-06-22T13:21:12;20.60;99.90
29207;DHT22;16247;50.840;4.382;2023-06-22T13:23:39;20.60;99.90
29207;DHT22;16247;50.840;4.382;2023-06-22T13:26:05;20.70;99.90
29207;DHT22;16247;50.840;4.382;2023-06-22T13:28:31;20.70;99.90
29207;DHT22;16247;50.840;4.382;2023-06-22T13:30:57;20.60;99.90
29207;DHT22;16247;50.840;4.382;2023-06-22T13:33:23;20.70;99.90
29207;DHT22;16247;50.840;4.382;2023-06-22T13:35:48;20.80;99.90
29207;DHT22;16247;50.840;4.382;2023-06-22T13:38:14;20.60;99.90
29207;DHT22;16247;50.840;4.382;2023-06-22T13:40:39;20.70;99.90
29207;DHT22;16247;50.840;4.382;2023-06-22T13:43:05;20.60;99.90
29207;DHT22;16247;50.840;4.382;2023-06-22T13:45:32;20.40;99.90
29207;DHT22;16247;50.840;4.382;2023-06-22T13:47:58;20.40;99.90
29207;DHT22;16247;50.840;4.382;2023-06-22T13:50:23;20.50;99.90
29207;DHT22;16247;50.840;4.382;2023-06-22T13:52:49;20.30;99.90
29207;DHT22;16247;50.840;4.382;2023-06-22T13:55:15;20.20;99.90
29207;DHT22;16247;50.840;4.382;2023-06-22T13:57:41;20.10;99.90
29207;DHT22;16247;50.840;4.382;2023-06-22T14:00:08;20.10;99.90
29207;DHT22;16247;50.840;4.382;2023-06-22T14:02:34;20.30;99.90
29207;DHT22;16247;50.840;4.382;2023-06-22T14:05:00;20.40;99.90
29207;DHT22;16247;50.840;4.382;2023-06-22T14:07:25;20.30;99.90
29207;DHT22;16247;50.840;4.382;2023-06-22T14:09:51;20.40;99.90
29207;DHT22;16247;50.840;4.382;2023-06-22T14:12:17;20.40;99.90
29207;DHT22;16247;50.840;4.382;2023-06-22T14:14:45;20.40;99.90
29207;DHT22;16247;50.840;4.382;2023-06-22T14:17:11;20.20;99.90
29207;DHT22;16247;50.840;4.382;2023-06-22T14:19:37;20.40;99.90
29207;DHT22;16247;50.840;4.382;2023-06-22T14:22:03;20.50;99.90
29207;DHT22;16247;50.840;4.382;2023-06-22T14:24:28;20.60;99.90
29207;DHT22;16247;50.840;4.382;2023-06-22T14:26:54;20.50;99.90
29207;DHT22;16247;50.840;4.382;2023-06-22T14:29:21;20.40;99.90
29207;DHT22;16247;50.840;4.382;2023-06-22T14:31:47;20.30;99.90
29207;DHT22;16247;50.840;4.382;2023-06-22T14:34:13;20.30;99.90
29207;DHT22;16247;50.840;4.382;2023-06-22T14:36:39;20.40;99.90
29207;DHT22;16247;50.840;4.382;2023-06-22T14:39:04;20.20;99.90
29207;DHT22;16247;50.840;4.382;2023-06-22T14:41:30;20.20;99.90
29207;DHT22;16247;50.840;4.382;2023-06-22T14:43:56;20.10;99.90
29207;DHT22;16247;50.840;4.382;2023-06-22T14:46:22;20.20;99.90
29207;DHT22;16247;50.840;4.382;2023-06-22T14:48:48;20.10;99.90
29207;DHT22;16247;50.840;4.382;2023-06-22T14:51:14;20.00;99.90
29207;DHT22;16247;50.840;4.382;2023-06-22T14:53:40;20.00;99.90
29207;DHT22;16247;50.840;4.382;2023-06-22T14:56:06;20.30;99.90
29207;DHT22;16247;50.840;4.382;2023-06-22T14:58:32;20.40;99.90
29207;DHT22;16247;50.840;4.382;2023-06-22T15:01:02;20.20;99.90
29207;DHT22;16247;50.840;4.382;2023-06-22T15:03:28;20.20;99.90
29207;DHT22;16247;50.840;4.382;2023-06-22T15:05:56;20.30;99.90
29207;DHT22;16247;50.840;4.382;2023-06-22T15:08:22;20.50;99.90
29207;DHT22;16247;50.840;4.382;2023-06-22T15:10:48;20.50;99.90
29207;DHT22;16247;50.840;4.382;2023-06-22T15:13:13;20.60;99.90
29207;DHT22;16247;50.840;4.382;2023-06-22T15:15:39;20.50;99.90
29207;DHT22;16247;50.840;4.382;2023-06-22T15:38:48;20.30;99.90
29207;DHT22;16247;50.840;4.382;2023-06-22T15:41:13;20.30;99.90
29207;DHT22;16247;50.840;4.382;2023-06-22T15:43:39;20.20;99.90
29207;DHT22;16247;50.840;4.382;2023-06-22T15:46:05;20.40;99.90
29207;DHT22;16247;50.840;4.382;2023-06-22T15:48:30;20.50;99.90
29207;DHT22;16247;50.840;4.382;2023-06-22T15:50:56;20.40;99.90
29207;DHT22;16247;50.840;4.382;2023-06-22T15:53:22;20.50;99.90
29207;DHT22;16247;50.840;4.382;2023-06-22T15:55:47;20.60;99.90
29207;DHT22;16247;50.840;4.382;2023-06-22T15:58:13;20.60;99.90
29207;DHT22;16247;50.840;4.382;2023-06-22T16:00:41;20.60;99.90
29207;DHT22;16247;50.840;4.382;2023-06-22T16:03:07;20.60;99.90
29207;DHT22;16247;50.840;4.382;2023-06-22T16:05:33;20.80;99.90
29207;DHT22;16247;50.840;4.382;2023-06-22T16:07:59;20.90;99.90
29207;DHT22;16247;50.840;4.382;2023-06-22T16:10:25;21.00;99.90
29207;DHT22;16247;50.840;4.382;2023-06-22T16:12:50;21.20;99.90
29207;DHT22;16247;50.840;4.382;2023-06-22T16:15:16;21.50;99.90
29207;DHT22;16247;50.840;4.382;2023-06-22T16:17:42;21.70;99.90
29207;DHT22;16247;50.840;4.382;2023-06-22T16:20:08;21.70;99.90
29207;DHT22;16247;50.840;4.382;2023-06-22T16:22:35;21.60;99.90
29207;DHT22;16247;50.840;4.382;2023-06-22T16:25:01;21.40;99.90
29207;DHT22;16247;50.840;4.382;2023-06-22T16:27:29;21.10;99.90
29207;DHT22;16247;50.840;4.382;2023-06-22T16:29:55;21.20;99.90
29207;DHT22;16247;50.840;4.382;2023-06-22T16:32:20;21.30;99.90
29207;DHT22;16247;50.840;4.382;2023-06-22T16:34:46;21.40;99.90
29207;DHT22;16247;50.840;4.382;2023-06-22T16:37:13;21.40;99.90
29207;DHT22;16247;50.840;4.382;2023-06-22T16:39:40;21.10;99.90
29207;DHT22;16247;50.840;4.382;2023-06-22T16:42:05;21.20;99.90
29207;DHT22;16247;50.840;4.382;2023-06-22T16:44:31;21.30;99.90
29207;DHT22;16247;50.840;4.382;2023-06-22T16:47:00;21.30;99.90
29207;DHT22;16247;50.840;4.382;2023-06-22T16:49:27;21.10;99.90
29207;DHT22;16247;50.840;4.382;2023-06-22T16:51:53;20.90;99.90
29207;DHT22;16247;50.840;4.382;2023-06-22T16:54:19;21.00;99.90
29207;DHT22;16247;50.840;4.382;2023-06-22T16:56:46;20.70;99.90
29207;DHT22;16247;50.840;4.382;2023-06-22T16:59:12;20.70;99.90
29207;DHT22;16247;50.840;4.382;2023-06-22T17:01:48;20.80;99.90
29207;DHT22;16247;50.840;4.382;2023-06-22T17:04:16;20.70;99.90
29207;DHT22;16247;50.840;4.382;2023-06-22T17:06:51;20.70;99.90
29207;DHT22;16247;50.840;4.382;2023-06-22T17:09:21;20.70;99.90
29207;DHT22;16247;50.840;4.382;2023-06-22T17:11:50;21.00;99.90
29207;DHT22;16247;50.840;4.382;2023-06-22T17:14:15;20.90;99.90
29207;DHT22;16247;50.840;4.382;2023-06-22T17:16:43;20.80;99.90
29207;DHT22;16247;50.840;4.382;2023-06-22T17:19:10;21.00;99.90
29207;DHT22;16247;50.840;4.382;2023-06-22T17:21:37;21.00;99.90
29207;DHT22;16247;50.840;4.382;2023-06-22T17:24:03;20.90;99.90
29207;DHT22;16247;50.840;4.382;2023-06-22T17:26:30;21.00;99.90
29207;DHT22;16247;50.840;4.382;2023-06-22T17:28:57;21.00;99.90
29207;DHT22;16247;50.840;4.382;2023-06-22T17:31:42;21.00;99.90
29207;DHT22;16247;50.840;4.382;2023-06-22T17:34:17;21.00;99.90
29207;DHT22;16247;50.840;4.382;2023-06-22T17:36:46;21.00;99.90
29207;DHT22;16247;50.840;4.382;2023-06-22T17:39:18;21.00;99.90
29207;DHT22;16247;50.840;4.382;2023-06-22T17:41:46;20.90;99.90
29207;DHT22;16247;50.840;4.382;2023-06-22T17:44:13;20.90;99.90
29207;DHT22;16247;50.840;4.382;2023-06-22T17:46:41;20.80;99.90
29207;DHT22;16247;50.840;4.382;2023-06-22T17:49:08;20.90;99.90
29207;DHT22;16247;50.840;4.382;2023-06-22T17:51:35;21.00;99.90
29207;DHT22;16247;50.840;4.382;2023-06-22T17:54:02;20.90;99.90
29207;DHT22;16247;50.840;4.382;2023-06-22T17:56:28;21.00;99.90
29207;DHT22;16247;50.840;4.382;2023-06-22T17:58:54;20.90;99.90
29207;DHT22;16247;50.840;4.382;2023-06-22T18:01:34;21.00;99.90
29207;DHT22;16247;50.840;4.382;2023-06-22T18:04:08;21.10;99.90
29207;DHT22;16247;50.840;4.382;2023-06-22T18:06:45;21.10;99.90
29207;DHT22;16247;50.840;4.382;2023-06-22T18:09:14;21.00;99.90
29207;DHT22;16247;50.840;4.382;2023-06-22T18:11:44;21.20;99.90
29207;DHT22;16247;50.840;4.382;2023-06-22T18:14:10;21.20;99.90
29207;DHT22;16247;50.840;4.382;2023-06-22T18:16:38;21.00;99.90
29207;DHT22;16247;50.840;4.382;2023-06-22T18:19:06;21.10;99.90
29207;DHT22;16247;50.840;4.382;2023-06-22T18:21:32;21.30;99.90
29207;DHT22;16247;50.840;4.382;2023-06-22T18:23:58;21.40;99.90
29207;DHT22;16247;50.840;4.382;2023-06-22T18:26:26;21.50;99.90
29207;DHT22;16247;50.840;4.382;2023-06-22T18:28:53;21.50;99.90
29207;DHT22;16247;50.840;4.382;2023-06-22T18:31:20;21.50;99.90
29207;DHT22;16247;50.840;4.382;2023-06-22T18:33:57;21.50;99.90
29207;DHT22;16247;50.840;4.382;2023-06-22T18:36:49;21.50;99.90
29207;DHT22;16247;50.840;4.382;2023-06-22T18:39:13;21.50;99.90
29207;DHT22;16247;50.840;4.382;2023-06-22T18:41:40;21.40;99.90
29207;DHT22;16247;50.840;4.382;2023-06-22T18:44:26;21.40;99.90
29207;DHT22;16247;50.840;4.382;2023-06-22T18:47:00;21.40;99.90
29207;DHT22;16247;50.840;4.382;2023-06-22T18:49:52;21.40;99.90
29207;DHT22;16247;50.840;4.382;2023-06-22T18:52:27;21.50;99.90
29207;DHT22;16247;50.840;4.382;2023-06-22T18:54:53;21.60;99.90
29207;DHT22;16247;50.840;4.382;2023-06-22T18:57:26;21.80;99.90
29207;DHT22;16247;50.840;4.382;2023-06-22T19:00:06;21.90;99.90
29207;DHT22;16247;50.840;4.382;2023-06-22T19:05:18;21.90;99.90
29207;DHT22;16247;50.840;4.382;2023-06-22T19:10:24;22.10;99.90
29207;DHT22;16247;50.840;4.382;2023-06-22T19:12:51;22.30;99.90
29207;DHT22;16247;50.840;4.382;2023-06-22T19:15:19;22.30;99.90
29207;DHT22;16247;50.840;4.382;2023-06-22T19:17:48;22.30;99.90
29207;DHT22;16247;50.840;4.382;2023-06-22T19:20:18;22.50;99.90
29207;DHT22;16247;50.840;4.382;2023-06-22T19:22:46;22.40;99.90
29207;DHT22;16247;50.840;4.382;2023-06-22T19:25:20;22.50;99.90
29207;DHT22;16247;50.840;4.382;2023-06-22T19:27:50;22.60;99.90
29207;DHT22;16247;50.840;4.382;2023-06-22T19:30:21;22.50;99.90
29207;DHT22;16247;50.840;4.382;2023-06-22T19:32:48;22.20;99.90
29207;DHT22;16247;50.840;4.382;2023-06-22T19:35:15;22.30;99.90
29207;DHT22;16247;50.840;4.382;2023-06-22T19:37:41;22.40;99.90
29207;DHT22;16247;50.840;4.382;2023-06-22T19:40:14;22.20;99.90
29207;DHT22;16247;50.840;4.382;2023-06-22T19:42:41;22.30;99.90
29207;DHT22;16247;50.840;4.382;2023-06-22T19:45:08;22.60;99.90
29207;DHT22;16247;50.840;4.382;2023-06-22T19:47:35;22.80;99.90
29207;DHT22;16247;50.840;4.382;2023-06-22T19:50:02;22.90;99.90
29207;DHT22;16247;50.840;4.382;2023-06-22T19:52:54;22.90;99.90
29207;DHT22;16247;50.840;4.382;2023-06-22T19:55:21;22.80;99.90
29207;DHT22;16247;50.840;4.382;2023-06-22T19:57:47;23.00;99.90
29207;DHT22;16247;50.840;4.382;2023-06-22T20:00:20;23.20;99.90
29207;DHT22;16247;50.840;4.382;2023-06-22T20:02:49;23.10;99.90